sensor_id;sensor_type;location;lat;lon;timestamp;P1;durP1;ratioP1;P2;durP2;ratioP2
16669;SDS011;8448;52.034;5.158;2023-02-28T00:00:25;6.07;;;3.37;;
16669;SDS011;8448;52.034;5.158;2023-02-28T00:02:52;5.90;;;3.40;;
16669;SDS011;8448;52.034;5.158;2023-02-28T00:05:20;7.63;;;3.60;;
16669;SDS011;8448;52.034;5.158;2023-02-28T00:07:50;5.67;;;3.23;;
16669;SDS011;8448;52.034;5.158;2023-02-28T00:10:18;9.30;;;3.77;;
16669;SDS011;8448;52.034;5.158;2023-02-28T00:12:49;6.77;;;3.30;;
16669;SDS011;8448;52.034;5.158;2023-02-28T00:15:17;5.23;;;3.40;;
16669;SDS011;8448;52.034;5.158;2023-02-28T00:17:46;7.33;;;3.10;;
16669;SDS011;8448;52.034;5.158;2023-02-28T00:20:13;5.60;;;3.30;;
16669;SDS011;8448;52.034;5.158;2023-02-28T00:22:42;7.57;;;3.47;;
16669;SDS011;8448;52.034;5.158;2023-02-28T00:25:13;4.97;;;3.23;;
16669;SDS011;8448;52.034;5.158;2023-02-28T00:27:42;7.63;;;3.67;;
16669;SDS011;8448;52.034;5.158;2023-02-28T00:30:16;8.70;;;3.80;;
16669;SDS011;8448;52.034;5.158;2023-02-28T00:32:45;7.17;;;3.57;;
16669;SDS011;8448;52.034;5.158;2023-02-28T00:35:12;7.40;;;3.57;;
16669;SDS011;8448;52.034;5.158;2023-02-28T00:37:40;5.37;;;3.50;;
16669;SDS011;8448;52.034;5.158;2023-02-28T00:40:10;7.50;;;3.53;;
16669;SDS011;8448;52.034;5.158;2023-02-28T00:42:39;7.87;;;3.80;;
16669;SDS011;8448;52.034;5.158;2023-02-28T00:45:07;6.07;;;3.47;;
16669;SDS011;8448;52.034;5.158;2023-02-28T00:47:36;7.83;;;3.60;;
16669;SDS011;8448;52.034;5.158;2023-02-28T00:50:04;6.03;;;3.33;;
16669;SDS011;8448;52.034;5.158;2023-02-28T00:52:32;10.13;;;3.80;;
16669;SDS011;8448;52.034;5.158;2023-02-28T00:55:00;6.70;;;3.60;;
16669;SDS011;8448;52.034;5.158;2023-02-28T00:57:28;6.23;;;3.73;;
16669;SDS011;8448;52.034;5.158;2023-02-28T00:59:56;6.20;;;3.33;;
16669;SDS011;8448;52.034;5.158;2023-02-28T01:02:23;7.90;;;3.70;;
16669;SDS011;8448;52.034;5.158;2023-02-28T01:04:51;6.03;;;3.63;;
16669;SDS011;8448;52.034;5.158;2023-02-28T01:07:19;7.03;;;3.83;;
16669;SDS011;8448;52.034;5.158;2023-02-28T01:09:46;8.73;;;3.70;;
16669;SDS011;8448;52.034;5.158;2023-02-28T01:12:14;7.83;;;4.20;;
16669;SDS011;8448;52.034;5.158;2023-02-28T01:14:43;7.33;;;3.67;;
16669;SDS011;8448;52.034;5.158;2023-02-28T01:17:10;7.63;;;4.00;;
16669;SDS011;8448;52.034;5.158;2023-02-28T01:19:38;7.23;;;4.23;;
16669;SDS011;8448;52.034;5.158;2023-02-28T01:22:05;6.17;;;3.80;;
16669;SDS011;8448;52.034;5.158;2023-02-28T01:24:33;8.93;;;4.03;;
16669;SDS011;8448;52.034;5.158;2023-02-28T01:27:01;6.43;;;4.17;;
16669;SDS011;8448;52.034;5.158;2023-02-28T01:29:28;6.17;;;4.10;;
16669;SDS011;8448;52.034;5.158;2023-02-28T01:31:57;7.27;;;3.90;;
16669;SDS011;8448;52.034;5.158;2023-02-28T01:34:25;6.03;;;3.67;;
16669;SDS011;8448;52.034;5.158;2023-02-28T01:36:52;6.57;;;3.80;;
16669;SDS011;8448;52.034;5.158;2023-02-28T01:39:20;5.93;;;3.70;;
16669;SDS011;8448;52.034;5.158;2023-02-28T01:41:48;6.93;;;4.23;;
16669;SDS011;8448;52.034;5.158;2023-02-28T01:47:23;9.70;;;3.97;;
16669;SDS011;8448;52.034;5.158;2023-02-28T01:49:55;7.07;;;3.50;;
16669;SDS011;8448;52.034;5.158;2023-02-28T01:52:23;5.80;;;3.67;;
16669;SDS011;8448;52.034;5.158;2023-02-28T01:54:54;6.50;;;3.63;;
16669;SDS011;8448;52.034;5.158;2023-02-28T01:57:24;7.50;;;3.60;;
16669;SDS011;8448;52.034;5.158;2023-02-28T01:59:54;7.93;;;3.90;;
16669;SDS011;8448;52.034;5.158;2023-02-28T02:02:26;5.77;;;3.80;;
16669;SDS011;8448;52.034;5.158;2023-02-28T02:04:54;6.97;;;3.57;;
16669;SDS011;8448;52.034;5.158;2023-02-28T02:07:23;7.23;;;3.93;;
16669;SDS011;8448;52.034;5.158;2023-02-28T02:09:58;7.20;;;3.90;;
16669;SDS011;8448;52.034;5.158;2023-02-28T02:12:29;5.30;;;3.27;;
16669;SDS011;8448;52.034;5.158;2023-02-28T02:15:05;7.03;;;3.90;;
16669;SDS011;8448;52.034;5.158;2023-02-28T02:17:39;6.93;;;3.90;;
16669;SDS011;8448;52.034;5.158;2023-02-28T02:20:24;5.30;;;3.60;;
16669;SDS011;8448;52.034;5.158;2023-02-28T02:26:02;6.77;;;3.73;;
16669;SDS011;8448;52.034;5.158;2023-02-28T02:28:55;6.57;;;3.90;;
16669;SDS011;8448;52.034;5.158;2023-02-28T02:31:41;6.70;;;3.60;;
16669;SDS011;8448;52.034;5.158;2023-02-28T02:34:30;7.30;;;4.00;;
16669;SDS011;8448;52.034;5.158;2023-02-28T02:37:13;6.33;;;4.13;;
16669;SDS011;8448;52.034;5.158;2023-02-28T02:39:50;7.07;;;3.73;;
16669;SDS011;8448;52.034;5.158;2023-02-28T02:42:21;8.00;;;3.73;;
16669;SDS011;8448;52.034;5.158;2023-02-28T02:44:53;7.33;;;3.40;;
16669;SDS011;8448;52.034;5.158;2023-02-28T02:47:25;6.97;;;3.87;;
16669;SDS011;8448;52.034;5.158;2023-02-28T02:49:56;8.80;;;4.07;;
16669;SDS011;8448;52.034;5.158;2023-02-28T02:52:28;7.20;;;3.33;;
16669;SDS011;8448;52.034;5.158;2023-02-28T02:54:58;6.57;;;3.70;;
16669;SDS011;8448;52.034;5.158;2023-02-28T02:57:27;7.03;;;3.60;;
16669;SDS011;8448;52.034;5.158;2023-02-28T02:59:57;8.93;;;4.00;;
16669;SDS011;8448;52.034;5.158;2023-02-28T03:02:28;7.07;;;3.73;;
16669;SDS011;8448;52.034;5.158;2023-02-28T03:05:01;5.60;;;3.87;;
16669;SDS011;8448;52.034;5.158;2023-02-28T03:07:31;7.60;;;4.30;;
16669;SDS011;8448;52.034;5.158;2023-02-28T03:09:58;6.73;;;3.90;;
16669;SDS011;8448;52.034;5.158;2023-02-28T03:12:28;6.73;;;3.83;;
16669;SDS011;8448;52.034;5.158;2023-02-28T03:15:11;7.27;;;4.00;;
16669;SDS011;8448;52.034;5.158;2023-02-28T03:17:53;7.17;;;3.77;;
16669;SDS011;8448;52.034;5.158;2023-02-28T03:20:32;8.13;;;4.03;;
16669;SDS011;8448;52.034;5.158;2023-02-28T03:23:07;6.40;;;4.07;;
16669;SDS011;8448;52.034;5.158;2023-02-28T03:25:42;7.43;;;4.10;;
16669;SDS011;8448;52.034;5.158;2023-02-28T03:28:17;6.67;;;4.50;;
16669;SDS011;8448;52.034;5.158;2023-02-28T03:30:48;6.93;;;4.00;;
16669;SDS011;8448;52.034;5.158;2023-02-28T03:33:20;9.27;;;4.43;;
16669;SDS011;8448;52.034;5.158;2023-02-28T03:35:51;8.27;;;4.00;;
16669;SDS011;8448;52.034;5.158;2023-02-28T03:38:22;7.53;;;4.07;;
16669;SDS011;8448;52.034;5.158;2023-02-28T03:40:55;8.23;;;4.23;;
16669;SDS011;8448;52.034;5.158;2023-02-28T03:43:25;7.03;;;3.80;;
16669;SDS011;8448;52.034;5.158;2023-02-28T03:45:55;7.30;;;4.50;;
16669;SDS011;8448;52.034;5.158;2023-02-28T03:48:23;8.07;;;4.10;;
16669;SDS011;8448;52.034;5.158;2023-02-28T03:50:55;7.87;;;4.37;;
16669;SDS011;8448;52.034;5.158;2023-02-28T03:53:25;6.17;;;3.70;;
16669;SDS011;8448;52.034;5.158;2023-02-28T03:55:57;5.40;;;3.93;;
16669;SDS011;8448;52.034;5.158;2023-02-28T03:58:29;6.87;;;4.17;;
16669;SDS011;8448;52.034;5.158;2023-02-28T04:00:59;6.53;;;4.17;;
16669;SDS011;8448;52.034;5.158;2023-02-28T04:03:33;7.93;;;4.23;;
16669;SDS011;8448;52.034;5.158;2023-02-28T04:06:03;7.47;;;4.33;;
16669;SDS011;8448;52.034;5.158;2023-02-28T04:08:31;8.50;;;4.23;;
16669;SDS011;8448;52.034;5.158;2023-02-28T04:11:00;6.37;;;4.27;;
16669;SDS011;8448;52.034;5.158;2023-02-28T04:13:31;7.87;;;4.70;;
16669;SDS011;8448;52.034;5.158;2023-02-28T04:15:58;8.80;;;4.20;;
16669;SDS011;8448;52.034;5.158;2023-02-28T04:18:25;8.27;;;4.50;;
16669;SDS011;8448;52.034;5.158;2023-02-28T04:20:53;7.33;;;4.40;;
16669;SDS011;8448;52.034;5.158;2023-02-28T04:23:21;7.73;;;4.93;;
16669;SDS011;8448;52.034;5.158;2023-02-28T04:25:49;7.30;;;4.57;;
16669;SDS011;8448;52.034;5.158;2023-02-28T04:28:16;10.13;;;5.00;;
16669;SDS011;8448;52.034;5.158;2023-02-28T04:30:44;8.90;;;4.80;;
16669;SDS011;8448;52.034;5.158;2023-02-28T04:33:11;9.23;;;5.37;;
16669;SDS011;8448;52.034;5.158;2023-02-28T04:35:38;13.07;;;5.17;;
16669;SDS011;8448;52.034;5.158;2023-02-28T04:38:06;6.97;;;5.00;;
16669;SDS011;8448;52.034;5.158;2023-02-28T04:40:35;9.27;;;4.70;;
16669;SDS011;8448;52.034;5.158;2023-02-28T04:43:02;8.60;;;4.30;;
16669;SDS011;8448;52.034;5.158;2023-02-28T04:45:29;6.13;;;4.07;;
16669;SDS011;8448;52.034;5.158;2023-02-28T04:47:58;5.60;;;3.80;;
16669;SDS011;8448;52.034;5.158;2023-02-28T04:50:26;9.60;;;4.17;;
16669;SDS011;8448;52.034;5.158;2023-02-28T04:52:53;5.70;;;3.60;;
16669;SDS011;8448;52.034;5.158;2023-02-28T04:55:21;6.27;;;3.67;;
16669;SDS011;8448;52.034;5.158;2023-02-28T04:57:49;6.23;;;3.70;;
16669;SDS011;8448;52.034;5.158;2023-02-28T05:00:18;5.30;;;3.40;;
16669;SDS011;8448;52.034;5.158;2023-02-28T05:02:46;4.80;;;3.40;;
16669;SDS011;8448;52.034;5.158;2023-02-28T05:05:13;3.90;;;2.90;;
16669;SDS011;8448;52.034;5.158;2023-02-28T05:07:43;5.37;;;3.37;;
16669;SDS011;8448;52.034;5.158;2023-02-28T05:10:11;4.07;;;3.10;;
16669;SDS011;8448;52.034;5.158;2023-02-28T05:12:38;5.53;;;3.00;;
16669;SDS011;8448;52.034;5.158;2023-02-28T05:15:07;4.63;;;3.10;;
16669;SDS011;8448;52.034;5.158;2023-02-28T05:17:36;5.13;;;3.00;;
16669;SDS011;8448;52.034;5.158;2023-02-28T05:20:04;6.67;;;3.40;;
16669;SDS011;8448;52.034;5.158;2023-02-28T05:22:32;6.00;;;3.50;;
16669;SDS011;8448;52.034;5.158;2023-02-28T05:24:59;6.93;;;3.30;;
16669;SDS011;8448;52.034;5.158;2023-02-28T05:27:27;6.47;;;3.50;;
16669;SDS011;8448;52.034;5.158;2023-02-28T05:29:54;4.53;;;3.10;;
16669;SDS011;8448;52.034;5.158;2023-02-28T05:32:23;5.27;;;3.27;;
16669;SDS011;8448;52.034;5.158;2023-02-28T05:34:50;5.27;;;3.30;;
16669;SDS011;8448;52.034;5.158;2023-02-28T05:37:17;4.63;;;3.40;;
16669;SDS011;8448;52.034;5.158;2023-02-28T05:39:45;5.87;;;3.43;;
16669;SDS011;8448;52.034;5.158;2023-02-28T05:42:12;5.97;;;3.60;;
16669;SDS011;8448;52.034;5.158;2023-02-28T05:44:40;5.30;;;3.63;;
16669;SDS011;8448;52.034;5.158;2023-02-28T05:47:07;9.83;;;3.60;;
16669;SDS011;8448;52.034;5.158;2023-02-28T05:49:36;6.10;;;3.37;;
16669;SDS011;8448;52.034;5.158;2023-02-28T05:52:03;6.03;;;3.77;;
16669;SDS011;8448;52.034;5.158;2023-02-28T05:54:30;5.33;;;3.70;;
16669;SDS011;8448;52.034;5.158;2023-02-28T05:56:58;6.00;;;3.83;;
16669;SDS011;8448;52.034;5.158;2023-02-28T05:59:25;5.13;;;3.47;;
16669;SDS011;8448;52.034;5.158;2023-02-28T06:01:53;5.63;;;3.60;;
16669;SDS011;8448;52.034;5.158;2023-02-28T06:04:20;5.17;;;3.83;;
16669;SDS011;8448;52.034;5.158;2023-02-28T06:06:49;5.47;;;4.13;;
16669;SDS011;8448;52.034;5.158;2023-02-28T06:09:17;7.13;;;4.20;;
16669;SDS011;8448;52.034;5.158;2023-02-28T06:11:45;5.83;;;3.93;;
16669;SDS011;8448;52.034;5.158;2023-02-28T06:14:14;6.03;;;3.97;;
16669;SDS011;8448;52.034;5.158;2023-02-28T06:16:43;7.60;;;4.27;;
16669;SDS011;8448;52.034;5.158;2023-02-28T06:19:10;6.17;;;4.10;;
16669;SDS011;8448;52.034;5.158;2023-02-28T06:21:38;5.53;;;4.13;;
16669;SDS011;8448;52.034;5.158;2023-02-28T06:24:07;6.20;;;4.40;;
16669;SDS011;8448;52.034;5.158;2023-02-28T06:26:35;6.53;;;4.40;;
16669;SDS011;8448;52.034;5.158;2023-02-28T06:29:02;9.30;;;4.73;;
16669;SDS011;8448;52.034;5.158;2023-02-28T06:31:30;7.13;;;4.60;;
16669;SDS011;8448;52.034;5.158;2023-02-28T06:33:57;6.57;;;4.20;;
16669;SDS011;8448;52.034;5.158;2023-02-28T06:36:25;5.93;;;3.90;;
16669;SDS011;8448;52.034;5.158;2023-02-28T06:38:52;7.17;;;4.50;;
16669;SDS011;8448;52.034;5.158;2023-02-28T06:41:23;6.50;;;4.70;;
16669;SDS011;8448;52.034;5.158;2023-02-28T06:43:51;7.13;;;4.40;;
16669;SDS011;8448;52.034;5.158;2023-02-28T06:46:19;7.73;;;4.97;;
16669;SDS011;8448;52.034;5.158;2023-02-28T06:48:47;7.73;;;4.30;;
16669;SDS011;8448;52.034;5.158;2023-02-28T06:51:15;6.90;;;4.67;;
16669;SDS011;8448;52.034;5.158;2023-02-28T06:53:45;8.20;;;5.07;;
16669;SDS011;8448;52.034;5.158;2023-02-28T06:56:13;8.13;;;5.40;;
16669;SDS011;8448;52.034;5.158;2023-02-28T06:58:45;6.87;;;5.20;;
16669;SDS011;8448;52.034;5.158;2023-02-28T07:01:14;7.80;;;5.37;;
16669;SDS011;8448;52.034;5.158;2023-02-28T07:03:42;7.50;;;5.40;;
16669;SDS011;8448;52.034;5.158;2023-02-28T07:06:09;9.17;;;5.40;;
16669;SDS011;8448;52.034;5.158;2023-02-28T07:08:37;6.77;;;5.33;;
16669;SDS011;8448;52.034;5.158;2023-02-28T07:11:06;10.63;;;5.80;;
16669;SDS011;8448;52.034;5.158;2023-02-28T07:13:33;7.77;;;5.60;;
16669;SDS011;8448;52.034;5.158;2023-02-28T07:16:03;10.27;;;5.90;;
16669;SDS011;8448;52.034;5.158;2023-02-28T07:18:31;9.73;;;5.47;;
16669;SDS011;8448;52.034;5.158;2023-02-28T07:21:01;6.83;;;5.23;;
16669;SDS011;8448;52.034;5.158;2023-02-28T07:23:28;9.37;;;5.43;;
16669;SDS011;8448;52.034;5.158;2023-02-28T07:25:56;7.77;;;5.47;;
16669;SDS011;8448;52.034;5.158;2023-02-28T07:28:23;9.20;;;5.50;;
16669;SDS011;8448;52.034;5.158;2023-02-28T07:30:50;9.23;;;5.80;;
16669;SDS011;8448;52.034;5.158;2023-02-28T07:33:19;8.80;;;5.87;;
16669;SDS011;8448;52.034;5.158;2023-02-28T07:35:47;10.03;;;6.10;;
16669;SDS011;8448;52.034;5.158;2023-02-28T07:38:14;7.80;;;5.63;;
16669;SDS011;8448;52.034;5.158;2023-02-28T07:40:42;7.50;;;5.23;;
16669;SDS011;8448;52.034;5.158;2023-02-28T07:43:09;9.37;;;5.40;;
16669;SDS011;8448;52.034;5.158;2023-02-28T07:45:36;7.87;;;5.43;;
16669;SDS011;8448;52.034;5.158;2023-02-28T07:48:04;9.40;;;5.50;;
16669;SDS011;8448;52.034;5.158;2023-02-28T07:50:33;10.73;;;5.97;;
16669;SDS011;8448;52.034;5.158;2023-02-28T07:53:00;9.20;;;5.73;;
16669;SDS011;8448;52.034;5.158;2023-02-28T07:55:27;9.40;;;5.83;;
16669;SDS011;8448;52.034;5.158;2023-02-28T07:57:55;8.70;;;5.73;;
16669;SDS011;8448;52.034;5.158;2023-02-28T08:00:23;7.97;;;5.13;;
16669;SDS011;8448;52.034;5.158;2023-02-28T08:02:51;6.73;;;4.70;;
16669;SDS011;8448;52.034;5.158;2023-02-28T08:05:18;7.90;;;5.40;;
16669;SDS011;8448;52.034;5.158;2023-02-28T08:07:48;7.93;;;5.53;;
16669;SDS011;8448;52.034;5.158;2023-02-28T08:10:15;9.57;;;5.70;;
16669;SDS011;8448;52.034;5.158;2023-02-28T08:12:43;8.43;;;6.00;;
16669;SDS011;8448;52.034;5.158;2023-02-28T08:15:10;8.80;;;6.23;;
16669;SDS011;8448;52.034;5.158;2023-02-28T08:17:38;8.30;;;5.60;;
16669;SDS011;8448;52.034;5.158;2023-02-28T08:20:05;9.07;;;5.90;;
16669;SDS011;8448;52.034;5.158;2023-02-28T08:22:35;8.03;;;5.60;;
16669;SDS011;8448;52.034;5.158;2023-02-28T08:25:04;7.87;;;5.43;;
16669;SDS011;8448;52.034;5.158;2023-02-28T08:27:32;8.73;;;5.60;;
16669;SDS011;8448;52.034;5.158;2023-02-28T08:30:00;9.17;;;5.33;;
16669;SDS011;8448;52.034;5.158;2023-02-28T08:32:28;8.40;;;5.20;;
16669;SDS011;8448;52.034;5.158;2023-02-28T08:34:55;7.70;;;5.60;;
16669;SDS011;8448;52.034;5.158;2023-02-28T08:37:23;9.30;;;5.70;;
16669;SDS011;8448;52.034;5.158;2023-02-28T08:39:50;9.10;;;5.40;;
16669;SDS011;8448;52.034;5.158;2023-02-28T08:42:19;7.60;;;5.10;;
16669;SDS011;8448;52.034;5.158;2023-02-28T08:44:46;8.13;;;5.00;;
16669;SDS011;8448;52.034;5.158;2023-02-28T08:47:14;8.30;;;4.60;;
16669;SDS011;8448;52.034;5.158;2023-02-28T08:49:41;6.43;;;4.20;;
16669;SDS011;8448;52.034;5.158;2023-02-28T08:52:08;6.47;;;3.90;;
16669;SDS011;8448;52.034;5.158;2023-02-28T08:54:36;7.07;;;4.23;;
16669;SDS011;8448;52.034;5.158;2023-02-28T08:57:03;7.03;;;4.37;;
16669;SDS011;8448;52.034;5.158;2023-02-28T08:59:32;7.37;;;4.20;;
16669;SDS011;8448;52.034;5.158;2023-02-28T09:01:59;5.57;;;3.90;;
16669;SDS011;8448;52.034;5.158;2023-02-28T09:04:27;4.13;;;3.60;;
16669;SDS011;8448;52.034;5.158;2023-02-28T09:06:55;4.50;;;3.73;;
16669;SDS011;8448;52.034;5.158;2023-02-28T09:09:23;5.13;;;3.80;;
16669;SDS011;8448;52.034;5.158;2023-02-28T09:11:50;5.33;;;3.60;;
16669;SDS011;8448;52.034;5.158;2023-02-28T09:14:17;5.37;;;3.27;;
16669;SDS011;8448;52.034;5.158;2023-02-28T09:16:46;4.80;;;3.17;;
16669;SDS011;8448;52.034;5.158;2023-02-28T09:19:13;5.13;;;3.33;;
16669;SDS011;8448;52.034;5.158;2023-02-28T09:21:41;4.40;;;3.20;;
16669;SDS011;8448;52.034;5.158;2023-02-28T09:24:09;3.70;;;2.80;;
16669;SDS011;8448;52.034;5.158;2023-02-28T09:26:39;4.37;;;2.70;;
16669;SDS011;8448;52.034;5.158;2023-02-28T09:29:06;3.80;;;2.80;;
16669;SDS011;8448;52.034;5.158;2023-02-28T09:31:34;4.43;;;3.03;;
16669;SDS011;8448;52.034;5.158;2023-02-28T09:34:03;4.10;;;2.93;;
16669;SDS011;8448;52.034;5.158;2023-02-28T09:36:31;3.67;;;2.67;;
16669;SDS011;8448;52.034;5.158;2023-02-28T09:39:00;3.67;;;2.90;;
16669;SDS011;8448;52.034;5.158;2023-02-28T09:41:28;3.00;;;2.70;;
16669;SDS011;8448;52.034;5.158;2023-02-28T09:44:00;5.20;;;2.60;;
16669;SDS011;8448;52.034;5.158;2023-02-28T09:46:31;5.07;;;2.70;;
16669;SDS011;8448;52.034;5.158;2023-02-28T09:49:00;4.73;;;2.70;;
16669;SDS011;8448;52.034;5.158;2023-02-28T09:51:33;3.50;;;2.50;;
16669;SDS011;8448;52.034;5.158;2023-02-28T09:54:09;4.43;;;2.20;;
16669;SDS011;8448;52.034;5.158;2023-02-28T09:56:44;2.90;;;1.93;;
16669;SDS011;8448;52.034;5.158;2023-02-28T09:59:14;2.80;;;2.03;;
16669;SDS011;8448;52.034;5.158;2023-02-28T10:01:52;1.93;;;1.63;;
16669;SDS011;8448;52.034;5.158;2023-02-28T10:04:33;2.13;;;1.77;;
16669;SDS011;8448;52.034;5.158;2023-02-28T10:07:05;2.93;;;1.80;;
16669;SDS011;8448;52.034;5.158;2023-02-28T10:09:42;2.20;;;1.90;;
16669;SDS011;8448;52.034;5.158;2023-02-28T10:12:13;3.97;;;2.13;;
16669;SDS011;8448;52.034;5.158;2023-02-28T10:14:43;2.90;;;2.23;;
16669;SDS011;8448;52.034;5.158;2023-02-28T10:17:12;2.73;;;2.10;;
16669;SDS011;8448;52.034;5.158;2023-02-28T10:19:44;5.07;;;2.50;;
16669;SDS011;8448;52.034;5.158;2023-02-28T10:22:15;4.40;;;2.20;;
16669;SDS011;8448;52.034;5.158;2023-02-28T10:24:46;2.90;;;2.10;;
16669;SDS011;8448;52.034;5.158;2023-02-28T10:27:17;4.03;;;2.40;;
16669;SDS011;8448;52.034;5.158;2023-02-28T10:29:46;2.80;;;2.20;;
16669;SDS011;8448;52.034;5.158;2023-02-28T10:32:15;4.43;;;2.33;;
16669;SDS011;8448;52.034;5.158;2023-02-28T10:34:45;3.13;;;2.27;;
16669;SDS011;8448;52.034;5.158;2023-02-28T10:37:18;3.97;;;2.70;;
16669;SDS011;8448;52.034;5.158;2023-02-28T10:39:46;4.03;;;2.10;;
16669;SDS011;8448;52.034;5.158;2023-02-28T10:42:21;5.23;;;2.10;;
16669;SDS011;8448;52.034;5.158;2023-02-28T10:45:04;2.50;;;2.00;;
16669;SDS011;8448;52.034;5.158;2023-02-28T10:47:33;2.60;;;2.20;;
16669;SDS011;8448;52.034;5.158;2023-02-28T10:50:03;2.23;;;1.80;;
16669;SDS011;8448;52.034;5.158;2023-02-28T10:52:35;1.90;;;1.73;;
16669;SDS011;8448;52.034;5.158;2023-02-28T10:55:14;2.17;;;1.63;;
16669;SDS011;8448;52.034;5.158;2023-02-28T10:57:45;3.00;;;1.90;;
16669;SDS011;8448;52.034;5.158;2023-02-28T11:00:14;2.40;;;2.00;;
16669;SDS011;8448;52.034;5.158;2023-02-28T11:02:42;1.90;;;1.70;;
16669;SDS011;8448;52.034;5.158;2023-02-28T11:05:26;1.93;;;1.70;;
16669;SDS011;8448;52.034;5.158;2023-02-28T11:07:55;2.60;;;1.80;;
16669;SDS011;8448;52.034;5.158;2023-02-28T11:10:26;2.00;;;1.80;;
16669;SDS011;8448;52.034;5.158;2023-02-28T11:12:57;3.10;;;1.90;;
16669;SDS011;8448;52.034;5.158;2023-02-28T11:15:25;2.73;;;1.80;;
16669;SDS011;8448;52.034;5.158;2023-02-28T11:17:53;2.80;;;1.90;;
16669;SDS011;8448;52.034;5.158;2023-02-28T11:20:23;2.50;;;1.83;;
16669;SDS011;8448;52.034;5.158;2023-02-28T11:22:53;2.77;;;1.90;;
16669;SDS011;8448;52.034;5.158;2023-02-28T11:25:21;3.20;;;2.10;;
16669;SDS011;8448;52.034;5.158;2023-02-28T11:27:50;3.65;;;2.28;;
16669;SDS011;8448;52.034;5.158;2023-02-28T11:30:29;2.15;;;1.95;;
16669;SDS011;8448;52.034;5.158;2023-02-28T11:33:07;2.40;;;2.08;;
16669;SDS011;8448;52.034;5.158;2023-02-28T11:35:50;2.25;;;1.80;;
16669;SDS011;8448;52.034;5.158;2023-02-28T11:38:18;2.75;;;2.08;;
16669;SDS011;8448;52.034;5.158;2023-02-28T11:40:46;2.38;;;1.80;;
16669;SDS011;8448;52.034;5.158;2023-02-28T11:43:21;2.88;;;1.88;;
16669;SDS011;8448;52.034;5.158;2023-02-28T11:45:57;4.63;;;2.00;;
16669;SDS011;8448;52.034;5.158;2023-02-28T11:48:33;2.53;;;1.90;;
16669;SDS011;8448;52.034;5.158;2023-02-28T11:51:12;2.40;;;1.98;;
16669;SDS011;8448;52.034;5.158;2023-02-28T11:53:49;2.73;;;2.00;;
16669;SDS011;8448;52.034;5.158;2023-02-28T11:56:43;3.45;;;2.20;;
16669;SDS011;8448;52.034;5.158;2023-02-28T11:59:18;2.47;;;1.98;;
16669;SDS011;8448;52.034;5.158;2023-02-28T12:02:02;2.85;;;2.28;;
16669;SDS011;8448;52.034;5.158;2023-02-28T12:04:36;3.63;;;1.88;;
16669;SDS011;8448;52.034;5.158;2023-02-28T12:07:15;1.80;;;1.70;;
16669;SDS011;8448;52.034;5.158;2023-02-28T12:09:51;3.10;;;2.00;;
16669;SDS011;8448;52.034;5.158;2023-02-28T12:12:27;1.85;;;1.60;;
16669;SDS011;8448;52.034;5.158;2023-02-28T12:15:05;2.38;;;2.03;;
16669;SDS011;8448;52.034;5.158;2023-02-28T12:17:46;2.13;;;1.92;;
16669;SDS011;8448;52.034;5.158;2023-02-28T12:20:23;2.17;;;1.88;;
16669;SDS011;8448;52.034;5.158;2023-02-28T12:22:58;2.00;;;1.55;;
16669;SDS011;8448;52.034;5.158;2023-02-28T12:25:42;2.47;;;2.10;;
16669;SDS011;8448;52.034;5.158;2023-02-28T12:28:17;2.03;;;1.80;;
16669;SDS011;8448;52.034;5.158;2023-02-28T12:30:49;2.63;;;1.80;;
16669;SDS011;8448;52.034;5.158;2023-02-28T12:33:21;2.60;;;1.70;;
16669;SDS011;8448;52.034;5.158;2023-02-28T12:35:52;3.53;;;2.13;;
16669;SDS011;8448;52.034;5.158;2023-02-28T12:38:23;3.30;;;2.10;;
16669;SDS011;8448;52.034;5.158;2023-02-28T12:40:55;2.33;;;1.85;;
16669;SDS011;8448;52.034;5.158;2023-02-28T12:43:25;1.83;;;1.73;;
16669;SDS011;8448;52.034;5.158;2023-02-28T12:45:58;2.33;;;1.52;;
16669;SDS011;8448;52.034;5.158;2023-02-28T12:48:29;1.70;;;1.60;;
16669;SDS011;8448;52.034;5.158;2023-02-28T12:51:02;2.03;;;1.75;;
16669;SDS011;8448;52.034;5.158;2023-02-28T12:53:34;1.60;;;1.40;;
16669;SDS011;8448;52.034;5.158;2023-02-28T12:56:09;1.90;;;1.55;;
16669;SDS011;8448;52.034;5.158;2023-02-28T12:58:41;2.13;;;1.80;;
16669;SDS011;8448;52.034;5.158;2023-02-28T13:01:15;2.28;;;2.00;;
16669;SDS011;8448;52.034;5.158;2023-02-28T13:04:07;1.77;;;1.60;;
16669;SDS011;8448;52.034;5.158;2023-02-28T13:06:59;2.20;;;1.90;;
16669;SDS011;8448;52.034;5.158;2023-02-28T13:09:38;2.00;;;1.77;;
16669;SDS011;8448;52.034;5.158;2023-02-28T13:12:12;3.22;;;1.55;;
16669;SDS011;8448;52.034;5.158;2023-02-28T13:14:40;2.28;;;2.00;;
16669;SDS011;8448;52.034;5.158;2023-02-28T13:17:11;2.83;;;1.83;;
16669;SDS011;8448;52.034;5.158;2023-02-28T13:19:44;2.50;;;1.90;;
16669;SDS011;8448;52.034;5.158;2023-02-28T13:22:17;2.70;;;1.92;;
16669;SDS011;8448;52.034;5.158;2023-02-28T13:24:48;2.13;;;1.90;;
16669;SDS011;8448;52.034;5.158;2023-02-28T13:29:59;2.10;;;1.90;;
16669;SDS011;8448;52.034;5.158;2023-02-28T13:32:32;2.58;;;1.80;;
16669;SDS011;8448;52.034;5.158;2023-02-28T13:44:07;2.28;;;2.08;;
16669;SDS011;8448;52.034;5.158;2023-02-28T13:46:38;2.30;;;1.92;;
16669;SDS011;8448;52.034;5.158;2023-02-28T13:49:46;2.22;;;1.83;;
16669;SDS011;8448;52.034;5.158;2023-02-28T13:52:15;2.83;;;2.05;;
16669;SDS011;8448;52.034;5.158;2023-02-28T13:54:50;2.30;;;2.00;;
16669;SDS011;8448;52.034;5.158;2023-02-28T13:57:47;2.83;;;2.17;;
16669;SDS011;8448;52.034;5.158;2023-02-28T14:00:33;3.05;;;2.50;;
16669;SDS011;8448;52.034;5.158;2023-02-28T14:03:19;5.53;;;2.00;;
16669;SDS011;8448;52.034;5.158;2023-02-28T14:06:10;2.97;;;2.30;;
16669;SDS011;8448;52.034;5.158;2023-02-28T14:08:45;3.10;;;1.88;;
16669;SDS011;8448;52.034;5.158;2023-02-28T14:11:25;2.42;;;1.80;;
16669;SDS011;8448;52.034;5.158;2023-02-28T14:13:55;2.53;;;2.30;;
16669;SDS011;8448;52.034;5.158;2023-02-28T14:16:23;2.40;;;2.20;;
16669;SDS011;8448;52.034;5.158;2023-02-28T14:18:54;2.25;;;1.95;;
16669;SDS011;8448;52.034;5.158;2023-02-28T14:21:26;2.25;;;2.05;;
16669;SDS011;8448;52.034;5.158;2023-02-28T14:24:00;2.53;;;2.00;;
16669;SDS011;8448;52.034;5.158;2023-02-28T14:27:06;3.53;;;2.10;;
16669;SDS011;8448;52.034;5.158;2023-02-28T14:32:44;2.67;;;2.13;;
16669;SDS011;8448;52.034;5.158;2023-02-28T14:35:18;3.55;;;2.10;;
16669;SDS011;8448;52.034;5.158;2023-02-28T14:37:54;2.67;;;2.30;;
16669;SDS011;8448;52.034;5.158;2023-02-28T14:40:23;2.63;;;2.30;;
16669;SDS011;8448;52.034;5.158;2023-02-28T14:42:55;2.13;;;1.92;;
16669;SDS011;8448;52.034;5.158;2023-02-28T14:45:23;2.40;;;2.20;;
16669;SDS011;8448;52.034;5.158;2023-02-28T14:47:51;3.33;;;2.00;;
16669;SDS011;8448;52.034;5.158;2023-02-28T14:50:19;2.40;;;2.17;;
16669;SDS011;8448;52.034;5.158;2023-02-28T14:52:50;2.42;;;2.10;;
16669;SDS011;8448;52.034;5.158;2023-02-28T14:55:22;3.75;;;2.63;;
16669;SDS011;8448;52.034;5.158;2023-02-28T14:57:53;3.28;;;2.47;;
16669;SDS011;8448;52.034;5.158;2023-02-28T15:00:22;2.63;;;2.17;;
16669;SDS011;8448;52.034;5.158;2023-02-28T15:02:50;2.30;;;2.10;;
16669;SDS011;8448;52.034;5.158;2023-02-28T15:05:21;2.30;;;2.10;;
16669;SDS011;8448;52.034;5.158;2023-02-28T15:08:00;2.58;;;2.08;;
16669;SDS011;8448;52.034;5.158;2023-02-28T15:10:31;2.58;;;2.28;;
16669;SDS011;8448;52.034;5.158;2023-02-28T15:12:59;2.13;;;1.92;;
16669;SDS011;8448;52.034;5.158;2023-02-28T15:15:33;2.53;;;2.33;;
16669;SDS011;8448;52.034;5.158;2023-02-28T15:18:06;2.92;;;2.28;;
16669;SDS011;8448;52.034;5.158;2023-02-28T15:20:37;3.50;;;2.40;;
16669;SDS011;8448;52.034;5.158;2023-02-28T15:23:05;5.07;;;2.38;;
16669;SDS011;8448;52.034;5.158;2023-02-28T15:25:34;3.25;;;2.65;;
16669;SDS011;8448;52.034;5.158;2023-02-28T15:28:02;2.95;;;2.40;;
16669;SDS011;8448;52.034;5.158;2023-02-28T15:30:30;4.18;;;2.80;;
16669;SDS011;8448;52.034;5.158;2023-02-28T15:33:02;4.40;;;3.10;;
16669;SDS011;8448;52.034;5.158;2023-02-28T15:35:31;4.47;;;3.17;;
16669;SDS011;8448;52.034;5.158;2023-02-28T15:38:00;3.87;;;2.80;;
16669;SDS011;8448;52.034;5.158;2023-02-28T15:40:29;4.03;;;2.47;;
16669;SDS011;8448;52.034;5.158;2023-02-28T15:43:02;4.03;;;2.40;;